View Sortable Currents For Network
ASOSCoCoRaHSCOOPDCPISU Soil MoistureOther
SCANMy FavoritesBy StateRWISRWIS SurfaceRWIS Traffic
RWIS SoilBy NWS WFOUSCRN
Select Network:
Include METARS:
Sort Order: Format:

Times shown are for timezone: America/New_York. The local day summary is based on that timezone.
Table sorted by: (Observation Time)     Click on a column to sort it. Click on site ID for more information. You can download data from this network here and you can view daily summaries on this network.
ADD: ID Station Ob Time Present Wx Temps °F   Wind [knots] Precip Clouds
Air Hi Lo Dewp Feels RH % Alti Vsby Speed Drct Gust @ Time 1 Hour Today Level 1 Level 2 Level 3 Level 4
ASJAHOSKIE_TRI_COU05:55 PM939365 68 97 44 29.92 10 6SSW17 @ 12:35 PM0 CLR
VUJALBEMARLE05:35 PM939564 60 93 34 30 10 12G16SW23 @ 03:55 PM0 CLR
TTASANFORD-LEE_COUNTY_RGNL_AIRPORT05:35 PM939463 61 93 34 29.93 10 8SSW17 @ 12:15 AM0 CLR
MQIMANTEO/DARE_CO_RGNL05:35 PM828872 73 87 75 29.98 10 12SSW23 @ 04:15 PM0 CLR
CPCCOLUMBUS_CNTY_MUNI_ARPT05:35 PM919472 68 95 48 29.99 10 10S19 @ 12:15 PM0 CLR
EHOSHELBY_MUNI_ARPT05:35 PM899069 57 88 34 29.96 10 11SW20 @ 02:15 PM0 CLR
FFAKILL_DEVIL_HILLS05:35 PM859047 71 90 64 29.96 10 5S8 @ 03:35 PM0 CLR
RHPANDREWS-MURPHY_AIRPORT05:35 PM868761 57 85 37 29.98 10 9S19 @ 03:35 PM0 BKN 6000
SUTSOUTHPORT/BRUNSWICK05:35 PM848773 68 87 58 30.02 10 8SSW15 @ 05:55 AM0 CLR
IXARoanoke Rapids05:35 PM919364 73 101 56 29.92 12SSW22 @ 02:35 PM0 CLR
FQDRUTHERFORDTON05:35 PM889063 55 86 33 29.98 10 9G14SW21 @ 12:55 PM0 CLR
CTZCLINTON05:35 PM949672 59 94 31 29.96 10 6G15SSW16 @ 01:15 PM0 CLR
IPJLINCOLNTON05:35 PM909163 59 89 35 29.96 10 9G16SSW20 @ 03:15 PM0 CLR
LHZLOUISBURG/FRANKLIN_CNTY_ARPT05:35 PM939568 64 95 39 29.96 10 7SSW21 @ 01:35 PM0 CLR
SVHSTATESVILLE05:35 PM919268 59 90 35 29.95 10 8G15SSW21 @ 10:35 AM0 CLR
RCZROCKINGHAM05:35 PM949572 60 94 33 29.95 10 8G18SSW20 @ 03:55 PM0 CLR
EYFELIZABETHTOWN/CURTIS_BROWN_FIELD05:35 PM959673 60 94 31 29.97 10 15G19SSW22 @ 01:55 PM0 CLR
GEVASHE_COUNTY_ARPT05:35 PM798156 44 79 29 30.06 10 3SSW16 @ 01:55 PM0 CLR
MRNMORGANTON-LENOIR_AIRPORT05:35 PM919360 57 89 31 29.99 10 8G14SSW19 @ 03:35 PM0 CLR
MWKMOUNT_AIRY/SURRY_COUNTY_APRT05:35 PM889063 61 88 40 29.97 10 5S17 @ 02:55 PM0 CLR
DPLKENANSVILLE/DUPLIN_COUNTY05:35 PM939570 59 M 32 29.96 10 0N0 CLR
AFPWadesboro05:35 PM959569 57 93 28 29.95 10 6S18 @ 02:35 PM0 CLR
SIFReidsville05:35 PM919262 62 91 37 29.93 10 10G15SSW18 @ 12:35 PM0 CLR
OCWWASHINGTON/WARREN_FIELD_APRT05:35 PM949568 65 97 38 29.95 10 8G14SSW25 @ 02:35 AM0 CLR
HBIASHEBORO_MUNI_ARPT05:35 PM929271 59 91 33 29.98 10 8SSW19 @ 03:15 PM0 CLR
HRJERWIN/HARNETT_COUNTY_ARPT05:35 PM959670 57 93 29 29.94 10 10G19SW19 @ 02:15 PM0 CLR
GWWGOLDSBORO-WAYNE_MUNI_ARPT05:35 PM949568 59 93 32 29.94 10 10S28 @ 01:35 AM0 SCT 500
ONXCurrituck05:35 PM929361 63 93 39 29.93 10 9G14S21 @ 03:35 PM0 CLR
HNZHENDERSON-OXFORD_ARPT05:35 PM909165 63 91 40 29.94 10 13G16SW22 @ 12:15 PM0 CLR
1A5FRANKLIN05:35 PM848657 57 83 39 30.04 10 3SSW17 @ 03:55 PM0 CLR
JNXSMITHFIELD05:35 PM959563 61 95 32 29.94 10 5SSW19 @ 02:55 PM0 0.05 CLR
RUQROWAN_COUNTY_AIRPORT05:35 PM919169 58 90 33 29.95 10 10SW20 @ 01:55 PM0 CLR
PGVPITT-GREENVILLE_APRT05:35 PM959566 64 97 37 29.93 10 9G16SW22 @ 03:15 AM0 0.05 CLR
UKFNORTH_WILKESBORO/WILKES_CNTY05:35 PM889061 57 87 36 30 10 10G19SSW22 @ 01:35 PM0 CLR
SCRSilver City05:35 PM929263 61 92 36 29.96 10 7SSW18 @ 02:35 PM0 CLR
EXXLEXINGTON_DAVIDSON_COUNTY_AIRP05:35 PM909066 64 91 42 29.94 10 8G15SSW22 @ 01:55 PM0 CLR
ETCTarboro05:35 PM959671 66 98 40 29.92 7 8SSW34 @ 02:35 AM0 CLR
24ASylva05:35 PM818462 55 81 42 30.06 10 10G14SSW22 @ 03:15 PM0 CLR
TDFROXBORO05:35 PM909064 64 91 43 29.96 10 10G17SSW23 @ 01:35 PM0 CLR
EDEEDENTON_NORTHEA05:35 PM939574 75 105 56 29.94 10 9SW16 @ 02:15 PM0 SCT 6500
TNBWATAUGA_CNTY_HOSP_HELIP05:30 PM828453 44 80 27 30.08 10 6G12SW19 @ 01:50 PM0 CLR
HFFMACKALL_AAF05:22 PM939572 61 93 34 29.92 10 11SSW22 @ 12:56 PM0 CLR
NBTPiney Island05:00 PM919575 71 98 52 29.98 10 17G23SW27 @ 04:00 PM0 0.01 CLR
MRHSMITH_FIELD/BEAUFORT_(ASOS)04:58 PM818374 72 85 74 30 10 13G20SSW21.724405 @ 04:02 PM0 0 CLR
NJMBogue Field04:57 PM838474 71 88 68 30 7 13SSW18 @ 03:57 AM0
OAJJACKSONVILLE_(AWOS)04:56 PM939570 66 96 41 29.97 10 10SSW18 @ 12:56 PM0 CLR
GSBSEYMOUR-JOHNSON_AFB04:56 PM969673 60 96 31 29.92 10 9G20SSE28 @ 01:40 AM0 FEW 20000
ISOKINSTON/STALLINGS04:56 PM959771 64 97 37 29.96 10 14G19SW20 @ 02:56 PM0 CLR
NKTCHERRY_POINT_MCAS04:56 PM879471 71 93 59 29.99 10 10SSW21 @ 03:56 PM0 CLR
SOPSOUTHERN_PINES_AWOS04:56 PM959569 62 96 34 29.96 10 11SSW22 @ 12:56 PM0 CLR
NCANEW_RIVER_MCAS04:56 PM899469 72 96 57 29.97 10 8SSW22 @ 03:56 PM0 SCT 15000
2DPDare County Gunnery Range04:56 PM869275 77 97 73 29.96 10 11SSW17 @ 01:56 PM0 CLR
POBPOPE_AFB04:56 PM969769 58 95 29 29.93 10 13SW23 @ 01:56 PM0 CLR
FBGFORT_BRAGG/SIMMONS04:56 PM969771 59 96 29 29.93 10 8SSW20 @ 12:56 PM0 CLR
AKHGASTONIA_MCPL_(ASOS)04:54 PM909167 58 89 34 29.95 10 6G16N19 @ 01:54 PM0 0 CLR
GSOGREENSBORO/PIEDMONT_(ASOS)04:54 PM909168 63 91 41 29.95 10 13G21SSW26.069286 @ 02:08 PM0 0 FEW 6500
BUYBURLINGTON-ALAMANCE_REG_(ASOS)04:54 PM929363 63 93 38 29.94 10 10S22.593382 @ 01:39 PM0 0 CLR
INTWINSTON-SALEM/SMITH_(ASOS)04:54 PM929271 59 91 33 29.96 10 9G19SW22 @ 03:54 PM0 CLR
AVLASHEVILLE_MUNICIPAL_(ASOS)04:54 PM858759 57 84 39 30.01 10 13G20SSW25.200312 @ 02:02 PM0 0 CLR
EWNNEW_BERN/CRAVEN_CO_(ASOS)04:54 PMHZ919572 70 97 50 29.97 10 9SSW21.724405 @ 03:43 PMT T CLR
ECGELIZABETH_CITY(CGS)_(ASOS)04:54 PM939370 71 100 49 29.93 10 10S22.593382 @ 02:19 PM0 0 CLR
ILMWILMINGTON/NEW_HAN_(ASOS)04:53 PM929576 67 95 44 29.99 10 12SSW19.986454 @ 01:05 PM0 0 CLR
EQYMONROE_AIRPORT_(ASOS)04:53 PM919271 59 90 34 29.95 10 10SSW21.724405 @ 03:12 PM0 0 CLR
RWIROCKY_MOUNT-WILSON_(ASOS)04:53 PM969667 64 98 35 29.93 10 15SSW33 @ 01:53 AM0 0.02 CLR
FAYFAYETTEVILLE_RGNL_(ASOS)04:53 PM979971 55 95 25 29.94 10 15S26.069286 @ 12:25 PM0 0 CLR
HKYHICKORY_REGIONAL_(ASOS)04:53 PM919266 56 89 31 29.96 10 12G19SSW23.462358 @ 02:04 PM0 0 CLR
MEBLAURINBURG-MAXTON_ARPT_(ASOS)04:52 PM989874 57 97 26 29.95 10 15SW22 @ 01:10 PM0 CLR
CLTCharlotte / Douglas04:52 PM939472 58 92 31 29.95 10 14G21SSW22 @ 02:52 PM0 0 FEW 7000 FEW 25000
RDURaleigh / Durham04:51 PM949666 67 98 41 29.94 10 10SW28.676216 @ 02:38 PM0 T FEW 5500 SCT 25000
HSEHATTERAS_(ASOS)04:51 PM818274 73 86 77 30 7 9G17SW21.724405 @ 05:42 AM0 0 CLR
JQFCONCORD04:50 PM919372 57 90 32 29.97 10 8G18SW22 @ 11:51 AM0 CLR
7W6Engelhard04:35 PM839083 75 90 75 29.97 10 15G19S19 @ 04:35 PM0 CLR
LBTLumberton18 May 01:56 PMSite Offline
NR02Jordan FieldSite Offline
RZZROANOKE_RAPIDS_(ASOS)Site Offline
5W8Silver CitySite Offline
IGXWILLIAMS_AIRPORT_(ASOS)Site Offline